createdAt,value
2023-04-16T00:01:11.107Z,101873.75
2023-04-16T00:03:38.995Z,101871.88
2023-04-16T00:06:07.155Z,101864.69
2023-04-16T00:08:35.600Z,101868.28
2023-04-16T00:11:04.684Z,101869.06
2023-04-16T00:13:32.410Z,101874.34
2023-04-16T00:16:00.179Z,101874.34
2023-04-16T00:18:27.860Z,101862.94
2023-04-16T00:20:55.567Z,101869.13
2023-04-16T00:23:25.150Z,101868.38
2023-04-16T00:25:53.714Z,101859.53
2023-04-16T00:28:22.783Z,101865.66
2023-04-16T00:30:50.524Z,101860.38
2023-04-16T00:33:18.262Z,101862.06
2023-04-16T00:35:47.039Z,101867.34
2023-04-16T00:38:15.048Z,101866.44
2023-04-16T00:40:42.695Z,101868.28
2023-04-16T00:43:10.510Z,101866.69
2023-04-16T00:45:39.660Z,101876.19
2023-04-16T00:48:07.412Z,101873.66
2023-04-16T00:50:35.437Z,101870.91
2023-04-16T00:53:04.026Z,101881.31
2023-04-16T00:55:32.314Z,101872.25
2023-04-16T00:58:00.124Z,101872.25
2023-04-16T01:00:27.862Z,101873.97
2023-04-16T01:02:57.160Z,101881.81
2023-04-16T01:05:24.938Z,101877.38
2023-04-16T01:07:53.394Z,101877.28
2023-04-16T01:10:21.345Z,101879.06
2023-04-16T01:12:49.043Z,101875.50
2023-04-16T01:15:16.747Z,101882.66
2023-04-16T01:17:45.783Z,101874.75
2023-04-16T01:20:14.992Z,101887.75
2023-04-16T01:22:44.124Z,101890.28
2023-04-16T01:25:15.718Z,101889.44
2023-04-16T01:27:43.447Z,101893.03
2023-04-16T01:30:11.730Z,101892.94
2023-04-16T01:32:39.795Z,101896.31
2023-04-16T01:35:07.798Z,101910.28
2023-04-16T01:37:35.455Z,101897.25
2023-04-16T01:40:04.873Z,101902.28
2023-04-16T01:42:33.261Z,101904.06
2023-04-16T01:45:00.995Z,101904.91
2023-04-16T01:47:28.704Z,101899.53
2023-04-16T01:49:56.471Z,101896.25
2023-04-16T01:52:24.276Z,101897.75
2023-04-16T01:54:51.964Z,101903.03
2023-04-16T01:57:20.996Z,101903.22
2023-04-16T01:59:48.729Z,101904.06
2023-04-16T02:02:17.191Z,101901.53
2023-04-16T02:04:46.107Z,101901.53
2023-04-16T02:07:14.040Z,101892.81
2023-04-16T02:09:42.205Z,101895.56
2023-04-16T02:12:11.420Z,101894.81
2023-04-16T02:14:40.542Z,101906.41
2023-04-16T02:17:08.244Z,101895.75
2023-04-16T02:19:36.028Z,101900.84
2023-04-16T02:22:03.879Z,101898.94
2023-04-16T02:24:31.514Z,101901.53
2023-04-16T02:26:59.232Z,101909.44
2023-04-16T02:29:26.879Z,101906.03
2023-04-16T02:31:56.035Z,101906.97
2023-04-16T02:34:23.694Z,101907.91
2023-04-16T02:36:51.443Z,101901.13
2023-04-16T02:39:19.398Z,101900.19
2023-04-16T02:41:47.053Z,101907.31
2023-04-16T02:44:14.844Z,101911.69
2023-04-16T02:46:42.556Z,101910.72
2023-04-16T02:49:11.788Z,101916.00
2023-04-16T02:51:39.595Z,101903.16
2023-04-16T02:54:07.338Z,101909.28
2023-04-16T02:56:35.013Z,101914.66
2023-04-16T02:59:02.800Z,101916.56
2023-04-16T03:01:30.477Z,101910.25
2023-04-16T03:03:58.327Z,101910.16
2023-04-16T03:06:27.544Z,101918.25
2023-04-16T03:08:55.189Z,101924.19
2023-04-16T03:11:23.677Z,101917.13
2023-04-16T03:13:51.406Z,101920.59
2023-04-16T03:16:19.151Z,101923.06
2023-04-16T03:18:46.831Z,101924.88
2023-04-16T03:21:14.509Z,101933.69
2023-04-16T03:23:43.625Z,101924.09
2023-04-16T03:26:11.342Z,101921.38
2023-04-16T03:28:39.018Z,101924.88
2023-04-16T03:31:06.711Z,101924.03
2023-04-16T03:33:34.340Z,101926.56
2023-04-16T03:36:01.983Z,101929.31
2023-04-16T03:38:29.715Z,101916.66
2023-04-16T03:40:58.827Z,101926.38
2023-04-16T03:43:26.571Z,101925.63
2023-04-16T03:45:54.242Z,101929.09
2023-04-16T03:48:21.971Z,101934.47
2023-04-16T03:50:49.678Z,101924.78
2023-04-16T03:53:17.358Z,101926.72
2023-04-16T03:55:45.094Z,101924.03
2023-04-16T03:58:14.137Z,101929.97
2023-04-16T04:00:43.630Z,101922.78
2023-04-16T04:03:11.534Z,101934.13
2023-04-16T04:05:40.467Z,101929.59
2023-04-16T04:08:08.642Z,101930.56
2023-04-16T04:10:37.348Z,101931.50
2023-04-16T04:13:06.236Z,101934.88
2023-04-16T04:15:35.376Z,101937.53
2023-04-16T04:18:03.127Z,101936.78
2023-04-16T04:20:30.849Z,101944.59
2023-04-16T04:22:58.886Z,101947.13
2023-04-16T04:25:26.924Z,101945.44
2023-04-16T04:27:54.684Z,101952.41
2023-04-16T04:30:22.422Z,101952.41
2023-04-16T04:32:51.639Z,101959.38
2023-04-16T04:35:19.399Z,101964.66
2023-04-16T04:37:47.076Z,101950.88
2023-04-16T04:40:14.877Z,101962.28
2023-04-16T04:42:42.571Z,101963.16
2023-04-16T04:45:11.535Z,101968.44
2023-04-16T04:47:39.339Z,101961.63
2023-04-16T04:50:09.668Z,101972.16
2023-04-16T04:52:37.504Z,101973.97
2023-04-16T04:55:05.712Z,101970.63
2023-04-16T04:57:33.445Z,101972.34
2023-04-16T05:00:03.355Z,101969.63
2023-04-16T05:02:31.206Z,101973.88
2023-04-16T05:04:59.053Z,101972.84
2023-04-16T05:07:28.182Z,101981.53
2023-04-16T05:09:56.021Z,101986.72
2023-04-16T05:12:23.732Z,101986.91
2023-04-16T05:14:51.395Z,101985.28
2023-04-16T05:17:19.126Z,101987.91
2023-04-16T05:19:46.880Z,101977.63
2023-04-16T05:22:14.501Z,101993.28
2023-04-16T05:24:43.562Z,101996.69
2023-04-16T05:27:11.300Z,102001.69
2023-04-16T05:29:39.006Z,102001.59
2023-04-16T05:32:06.634Z,102002.38
2023-04-16T05:34:34.347Z,102011.97
2023-04-16T05:37:02.203Z,102008.50
2023-04-16T05:39:29.855Z,102005.78
2023-04-16T05:41:58.968Z,102015.41
2023-04-16T05:44:27.067Z,102020.50
2023-04-16T05:46:54.788Z,102026.53
2023-04-16T05:49:22.552Z,102011.81
2023-04-16T05:51:51.004Z,102022.19
2023-04-16T05:54:18.886Z,102020.34
2023-04-16T05:56:46.651Z,102023.81
2023-04-16T05:59:15.658Z,102021.84
2023-04-16T06:01:43.369Z,102030.69
2023-04-16T06:04:11.256Z,102029.16
2023-04-16T06:06:40.125Z,102038.88
2023-04-16T06:09:07.964Z,102038.81
2023-04-16T06:11:36.552Z,102037.03
2023-04-16T06:14:04.208Z,102037.94
2023-04-16T06:16:33.378Z,102044.09
2023-04-16T06:19:01.238Z,102045.84
2023-04-16T06:21:29.617Z,102037.09
2023-04-16T06:23:57.329Z,102044.84
2023-04-16T06:26:25.029Z,102042.22
2023-04-16T06:28:52.690Z,102048.44
2023-04-16T06:31:20.726Z,102043.16
2023-04-16T06:33:49.964Z,102059.75
2023-04-16T06:36:17.804Z,102065.00
2023-04-16T06:38:45.759Z,102059.75
2023-04-16T06:41:14.305Z,102060.50
2023-04-16T06:43:41.986Z,102066.53
2023-04-16T06:46:09.696Z,102064.59
2023-04-16T06:48:37.397Z,102068.72
2023-04-16T06:51:06.609Z,102068.47
2023-04-16T06:53:34.301Z,102072.91
2023-04-16T06:56:01.949Z,102066.03
2023-04-16T06:58:29.678Z,102076.59
2023-04-16T07:00:57.339Z,102088.09
2023-04-16T07:03:25.238Z,102076.59
2023-04-16T07:05:52.976Z,102073.94
2023-04-16T07:08:22.057Z,102082.44
2023-04-16T07:10:49.770Z,102079.63
2023-04-16T07:13:18.531Z,102074.25
2023-04-16T07:15:46.148Z,102077.00
2023-04-16T07:18:13.903Z,102084.13
2023-04-16T07:20:41.672Z,102083.38
2023-04-16T07:23:09.354Z,102082.28
2023-04-16T07:25:38.454Z,102095.28
2023-04-16T07:28:06.049Z,102097.84
2023-04-16T07:30:34.655Z,102095.91
2023-04-16T07:33:02.542Z,102094.84
2023-04-16T07:35:30.795Z,102085.13
2023-04-16T07:37:58.452Z,102090.25
2023-04-16T07:40:26.264Z,102092.13
2023-04-16T07:42:56.091Z,102093.81
2023-04-16T07:45:24.965Z,102088.38
2023-04-16T07:47:52.673Z,102096.09
2023-04-16T07:50:20.414Z,102096.69
2023-04-16T07:52:48.100Z,102106.91
2023-04-16T07:55:15.847Z,102099.75
2023-04-16T07:57:43.610Z,102102.28
2023-04-16T08:00:13.635Z,102105.03
2023-04-16T08:02:41.616Z,102112.97
2023-04-16T08:05:09.633Z,102110.13
2023-04-16T08:07:37.536Z,102099.94
2023-04-16T08:10:06.330Z,102115.81
2023-04-16T08:12:34.059Z,102125.28
2023-04-16T08:15:01.775Z,102121.69
2023-04-16T08:17:30.993Z,102127.38
2023-04-16T08:19:58.694Z,102121.72
2023-04-16T08:22:26.351Z,102125.59
2023-04-16T08:24:54.087Z,102125.72
2023-04-16T08:27:21.773Z,102123.81
2023-04-16T08:29:49.599Z,102125.34
2023-04-16T08:32:17.261Z,102127.78
2023-04-16T08:34:46.471Z,102125.34
2023-04-16T08:37:14.165Z,102137.94
2023-04-16T08:39:41.911Z,102142.97
2023-04-16T08:42:14.159Z,102127.16
2023-04-16T08:44:46.427Z,102139.53
2023-04-16T08:47:16.753Z,102148.31
2023-04-16T08:49:46.732Z,102149.19
2023-04-16T08:52:17.171Z,102156.25
2023-04-16T08:54:56.533Z,102141.75
2023-04-16T08:57:25.508Z,102153.72
2023-04-16T08:59:53.334Z,102156.19
2023-04-16T09:02:21.246Z,102160.22
2023-04-16T09:04:51.752Z,102169.59
2023-04-16T09:07:20.868Z,102156.28
2023-04-16T09:09:49.753Z,102156.97
2023-04-16T09:12:18.613Z,102150.72
2023-04-16T09:14:49.705Z,102153.84
2023-04-16T09:17:17.908Z,102163.22
2023-04-16T09:19:45.769Z,102157.72
2023-04-16T09:22:14.910Z,102154.88
2023-04-16T09:24:42.936Z,102166.03
2023-04-16T09:27:11.087Z,102159.53
2023-04-16T09:29:40.149Z,102160.16
2023-04-16T09:32:09.692Z,102165.09
2023-04-16T09:34:55.762Z,102172.09
2023-04-16T09:37:25.825Z,102173.59
2023-04-16T09:39:58.295Z,102165.56
2023-04-16T09:42:27.395Z,102173.19
2023-04-16T09:44:57.810Z,102178.13
2023-04-16T09:47:28.388Z,102183.13
2023-04-16T09:50:00.215Z,102177.53
2023-04-16T09:52:29.312Z,102179.06
2023-04-16T09:54:56.994Z,102178.84
2023-04-16T09:57:26.143Z,102182.06
2023-04-16T09:59:54.444Z,102190.75
2023-04-16T10:02:23.288Z,102187.16
2023-04-16T10:04:52.078Z,102179.88
2023-04-16T10:07:20.612Z,102185.75
2023-04-16T10:09:50.570Z,102186.16
2023-04-16T10:12:18.292Z,102187.69
2023-04-16T10:14:48.375Z,102188.25
2023-04-16T10:17:17.906Z,102201.38
2023-04-16T10:19:45.804Z,102186.34
2023-04-16T10:22:13.808Z,102188.63
2023-04-16T10:24:42.320Z,102191.91
2023-04-16T10:27:12.316Z,102189.72
2023-04-16T10:29:40.093Z,102200.56
2023-04-16T10:32:07.866Z,102188.72
2023-04-16T10:34:36.430Z,102174.50
2023-04-16T10:37:04.195Z,102189.28
2023-04-16T10:39:33.000Z,102191.81
2023-04-16T10:42:12.988Z,102188.94
2023-04-16T10:44:44.290Z,102183.47
2023-04-16T10:47:13.880Z,102195.44
2023-04-16T10:49:43.941Z,102190.13
2023-04-16T10:52:13.148Z,102182.09
2023-04-16T10:54:41.328Z,102184.53
2023-04-16T10:57:15.999Z,102180.75
2023-04-16T10:59:44.873Z,102191.22
2023-04-16T11:02:15.159Z,102167.38
2023-04-16T11:04:44.321Z,102171.09
2023-04-16T11:07:20.606Z,102176.72
2023-04-16T11:09:55.110Z,102186.91
2023-04-16T11:12:27.210Z,102182.34
2023-04-16T11:14:56.025Z,102191.03
2023-04-16T11:17:23.751Z,102176.06
2023-04-16T11:19:53.703Z,102181.38
2023-04-16T11:22:21.662Z,102177.78
2023-04-16T11:24:55.341Z,102179.28
2023-04-16T11:27:24.734Z,102176.41
2023-04-16T11:29:59.952Z,102178.84
2023-04-16T11:32:27.706Z,102173.13
2023-04-16T11:34:55.431Z,102180.94
2023-04-16T11:37:28.045Z,102174.38
2023-04-16T11:39:55.734Z,102183.91
2023-04-16T11:42:24.790Z,102181.25
2023-04-16T11:44:54.391Z,102180.53
2023-04-16T11:47:22.315Z,102182.22
2023-04-16T11:49:50.200Z,102177.25
2023-04-16T11:52:28.302Z,102183.63
2023-04-16T11:54:56.446Z,102177.78
2023-04-16T11:57:29.889Z,102178.38
2023-04-16T12:00:03.050Z,102180.09
2023-04-16T12:02:39.033Z,102171.47
2023-04-16T12:05:08.495Z,102178.78
2023-04-16T12:07:45.939Z,102180.59
2023-04-16T12:10:14.078Z,102176.41
2023-04-16T12:12:43.135Z,102189.03
2023-04-16T12:15:11.180Z,102182.06
2023-04-16T12:17:39.349Z,102179.34
2023-04-16T12:20:11.094Z,102174.44
2023-04-16T12:22:40.804Z,102171.63
2023-04-16T12:25:11.882Z,102182.94
2023-04-16T12:27:51.336Z,102186.06
2023-04-16T12:30:23.398Z,102182.72
2023-04-16T12:32:52.974Z,102187.50
2023-04-16T12:35:35.625Z,102186.91
2023-04-16T12:38:03.576Z,102184.31
2023-04-16T12:40:31.334Z,102186.50
2023-04-16T12:43:00.397Z,102184.44
2023-04-16T12:45:28.090Z,102181.41
2023-04-16T12:47:55.938Z,102175.69
2023-04-16T12:50:23.819Z,102171.72
2023-04-16T12:52:51.589Z,102176.78
2023-04-16T12:55:19.433Z,102178.88
2023-04-16T12:57:48.884Z,102184.81
2023-04-16T13:00:18.545Z,102182.41
2023-04-16T13:02:46.414Z,102174.66
2023-04-16T13:05:16.273Z,102173.41
2023-04-16T13:07:44.196Z,102183.59
2023-04-16T13:10:11.845Z,102176.78
2023-04-16T13:12:39.602Z,102179.56
2023-04-16T13:15:08.374Z,102181.00
2023-04-16T13:17:37.526Z,102168.81
2023-04-16T13:20:05.868Z,102177.97
2023-04-16T13:22:33.524Z,102179.91
2023-04-16T13:25:01.153Z,102178.47
2023-04-16T13:27:28.754Z,102176.34
2023-04-16T13:29:56.581Z,102186.47
2023-04-16T13:32:24.400Z,102185.09
2023-04-16T13:34:53.463Z,102174.59
2023-04-16T13:37:21.135Z,102179.78
2023-04-16T13:39:48.823Z,102174.25
2023-04-16T13:42:16.844Z,102169.66
2023-04-16T13:44:46.695Z,102171.88
2023-04-16T13:47:14.324Z,102176.84
2023-04-16T13:49:42.043Z,102169.50
2023-04-16T13:52:11.149Z,102166.72
2023-04-16T13:54:38.864Z,102173.00
2023-04-16T13:57:06.619Z,102153.53
2023-04-16T13:59:34.329Z,102166.00
2023-04-16T14:02:02.125Z,102162.84
2023-04-16T14:04:29.957Z,102167.41
2023-04-16T14:06:57.690Z,102176.34
2023-04-16T14:09:27.308Z,102170.38
2023-04-16T14:11:55.142Z,102164.91
2023-04-16T14:14:22.881Z,102162.84
2023-04-16T14:16:50.749Z,102166.91
2023-04-16T14:19:18.607Z,102167.59
2023-04-16T14:21:46.347Z,102164.66
2023-04-16T14:24:14.060Z,102168.50
2023-04-16T14:26:44.058Z,102171.59
2023-04-16T14:29:11.975Z,102171.53
2023-04-16T14:31:39.819Z,102175.72
2023-04-16T14:34:07.502Z,102171.16
2023-04-16T14:37:38.532Z,102171.09
2023-04-16T14:40:08.956Z,102166.75
2023-04-16T14:42:37.554Z,102178.03
2023-04-16T14:45:06.883Z,102173.66
2023-04-16T14:47:34.929Z,102171.09
2023-04-16T14:50:03.247Z,102172.47
2023-04-16T14:52:32.121Z,102168.25
2023-04-16T14:55:01.173Z,102176.09
2023-04-16T14:57:28.812Z,102166.56
2023-04-16T14:59:56.583Z,102169.28
2023-04-16T15:02:24.451Z,102172.91
2023-04-16T15:04:52.214Z,102179.81
2023-04-16T15:07:19.949Z,102174.59
2023-04-16T15:09:47.610Z,102179.81
2023-04-16T15:12:19.024Z,102175.44
2023-04-16T15:14:46.829Z,102179.06
2023-04-16T15:17:14.491Z,102176.31
2023-04-16T15:19:42.239Z,102170.78
2023-04-16T15:22:09.905Z,102182.03
2023-04-16T15:24:37.677Z,102180.97
2023-04-16T15:27:07.010Z,102177.47
2023-04-16T15:29:36.775Z,102173.00
2023-04-16T15:32:04.603Z,102168.44
2023-04-16T15:34:32.293Z,102170.84
2023-04-16T15:36:59.937Z,102169.16
2023-04-16T15:39:27.648Z,102167.47
2023-04-16T15:42:01.257Z,102170.84
2023-04-16T15:44:31.755Z,102176.94
2023-04-16T15:47:01.223Z,102172.59
2023-04-16T15:49:29.001Z,102178.63
2023-04-16T15:51:56.726Z,102172.59
2023-04-16T15:54:24.714Z,102171.69
2023-04-16T15:56:52.493Z,102179.91
2023-04-16T15:59:20.181Z,102177.34
2023-04-16T16:01:47.923Z,102183.53
2023-04-16T16:04:17.166Z,102185.31
2023-04-16T16:06:45.105Z,102175.66
2023-04-16T16:09:12.968Z,102186.06
2023-04-16T16:11:41.685Z,102180.13
2023-04-16T16:14:09.355Z,102182.78
2023-04-16T16:16:37.114Z,102181.09
2023-04-16T16:19:04.773Z,102185.53
2023-04-16T16:21:33.874Z,102184.59
2023-04-16T16:24:01.749Z,102191.59
2023-04-16T16:26:29.448Z,102184.59
2023-04-16T16:28:58.066Z,102189.13
2023-04-16T16:31:25.989Z,102186.72
2023-04-16T16:33:53.756Z,102192.03
2023-04-16T16:36:21.411Z,102187.78
2023-04-16T16:38:50.551Z,102188.63
2023-04-16T16:41:18.289Z,102192.25
2023-04-16T16:43:46.022Z,102184.38
2023-04-16T16:46:13.758Z,102186.06
2023-04-16T16:48:41.459Z,102190.44
2023-04-16T16:51:11.039Z,102184.28
2023-04-16T16:53:38.704Z,102175.25
2023-04-16T16:56:07.991Z,102182.66
2023-04-16T16:58:35.788Z,102184.91
2023-04-16T17:01:03.795Z,102190.63
2023-04-16T17:03:31.602Z,102190.06
2023-04-16T17:06:00.232Z,102165.41
2023-04-16T17:08:28.912Z,102176.84
2023-04-16T17:10:56.606Z,102180.88
2023-04-16T17:13:25.757Z,102179.19
2023-04-16T17:15:53.476Z,102181.28
2023-04-16T17:18:21.114Z,102179.13
2023-04-16T17:20:48.800Z,102181.44
2023-04-16T17:23:16.533Z,102185.94
2023-04-16T17:25:44.234Z,102194.00
2023-04-16T17:28:11.931Z,102186.13
2023-04-16T17:30:40.988Z,102189.63
2023-04-16T17:33:08.655Z,102184.44
2023-04-16T17:35:36.457Z,102172.78
2023-04-16T17:38:04.176Z,102194.56
2023-04-16T17:40:31.873Z,102191.38
2023-04-16T17:42:59.550Z,102195.34
2023-04-16T17:45:27.440Z,102194.91
2023-04-16T17:47:56.519Z,102208.44
2023-04-16T17:50:24.539Z,102211.31
2023-04-16T17:52:52.211Z,102209.09
2023-04-16T17:55:19.901Z,102205.19
2023-04-16T17:57:47.893Z,102202.72
2023-04-16T18:00:16.293Z,102216.22
2023-04-16T18:02:44.152Z,102212.72
2023-04-16T18:05:13.471Z,102212.72
2023-04-16T18:07:41.299Z,102213.81
2023-04-16T18:10:10.677Z,102215.69
2023-04-16T18:12:38.431Z,102210.63
2023-04-16T18:15:07.114Z,102218.56
2023-04-16T18:17:34.844Z,102220.28
2023-04-16T18:20:03.723Z,102223.91
2023-04-16T18:22:32.855Z,102222.19
2023-04-16T18:25:00.576Z,102231.31
2023-04-16T18:27:28.824Z,102220.91
2023-04-16T18:29:56.689Z,102224.63
2023-04-16T18:32:24.597Z,102235.25
2023-04-16T18:34:52.745Z,102230.84
2023-04-16T18:37:20.666Z,102237.25
2023-04-16T18:39:49.863Z,102234.47
2023-04-16T18:42:17.657Z,102242.78
2023-04-16T18:44:45.322Z,102244.47
2023-04-16T18:47:12.959Z,102242.00
2023-04-16T18:49:40.823Z,102255.28
2023-04-16T18:52:08.754Z,102259.75
2023-04-16T18:54:36.551Z,102254.53
2023-04-16T18:57:05.780Z,102268.03
2023-04-16T18:59:33.775Z,102261.03
2023-04-16T19:02:01.595Z,102269.19
2023-04-16T19:04:29.481Z,102272.25
2023-04-16T19:06:57.179Z,102282.53
2023-04-16T19:09:26.365Z,102285.63
2023-04-16T19:11:54.112Z,102272.97
2023-04-16T19:14:23.355Z,102284.53
2023-04-16T19:16:50.985Z,102286.66
2023-04-16T19:19:18.664Z,102287.78
2023-04-16T19:21:46.464Z,102291.63
2023-04-16T19:24:14.148Z,102295.31
2023-04-16T19:26:41.960Z,102291.25
2023-04-16T19:29:09.950Z,102293.03
2023-04-16T19:31:39.334Z,102295.91
2023-04-16T19:34:07.433Z,102297.72
2023-04-16T19:36:35.128Z,102294.31
2023-04-16T19:39:03.734Z,102300.66
2023-04-16T19:41:31.488Z,102297.16
2023-04-16T19:43:59.202Z,102288.25
2023-04-16T19:46:26.881Z,102304.16
2023-04-16T19:48:56.799Z,102303.53
2023-04-16T19:51:24.513Z,102304.38
2023-04-16T19:53:52.655Z,102310.72
2023-04-16T19:56:20.552Z,102311.75
2023-04-16T19:58:48.321Z,102315.56
2023-04-16T20:01:16.333Z,102321.25
2023-04-16T20:03:44.215Z,102318.03
2023-04-16T20:06:13.514Z,102321.09
2023-04-16T20:08:41.476Z,102319.69
2023-04-16T20:11:09.916Z,102324.53
2023-04-16T20:13:38.839Z,102319.41
2023-04-16T20:16:09.282Z,102327.34
2023-04-16T20:18:41.282Z,102335.47
2023-04-16T20:21:09.009Z,102329.69
2023-04-16T20:23:38.192Z,102328.31
2023-04-16T20:26:05.998Z,102342.78
2023-04-16T20:28:33.718Z,102339.75
2023-04-16T20:31:01.450Z,102343.72
2023-04-16T20:33:29.214Z,102342.09
2023-04-16T20:35:57.196Z,102341.31
2023-04-16T20:38:25.081Z,102351.38
2023-04-16T20:41:06.227Z,102351.53
2023-04-16T20:43:38.372Z,102350.59
2023-04-16T20:46:06.291Z,102348.97
2023-04-16T20:48:34.014Z,102350.97
2023-04-16T20:51:02.808Z,102346.91
2023-04-16T20:53:31.442Z,102350.00
2023-04-16T20:56:01.065Z,102350.56
2023-04-16T20:58:28.880Z,102344.78
2023-04-16T21:00:57.548Z,102342.22
2023-04-16T21:03:25.779Z,102345.13
2023-04-16T21:05:54.511Z,102351.47
2023-04-16T21:08:22.643Z,102351.53
2023-04-16T21:10:50.952Z,102355.22
2023-04-16T21:13:20.727Z,102359.56
2023-04-16T21:15:48.579Z,102368.63
2023-04-16T21:18:17.023Z,102356.34
2023-04-16T21:20:44.773Z,102362.38
2023-04-16T21:23:12.559Z,102351.97
2023-04-16T21:25:40.229Z,102359.91
2023-04-16T21:28:07.930Z,102353.94
2023-04-16T21:30:38.258Z,102359.59
2023-04-16T21:33:06.613Z,102351.00
2023-04-16T21:35:34.617Z,102357.56
2023-04-16T21:38:02.315Z,102354.22
2023-04-16T21:40:30.022Z,102355.28
2023-04-16T21:42:57.657Z,102362.25
2023-04-16T21:45:25.362Z,102365.00
2023-04-16T21:47:54.474Z,102359.97
2023-04-16T21:50:22.232Z,102361.94
2023-04-16T21:52:49.909Z,102364.78
2023-04-16T21:55:17.716Z,102362.16
2023-04-16T21:57:45.386Z,102360.25
2023-04-16T22:00:14.356Z,102367.22
2023-04-16T22:02:43.032Z,102369.97
2023-04-16T22:05:12.491Z,102363.63
2023-04-16T22:07:40.558Z,102365.75
2023-04-16T22:10:09.871Z,102364.13
2023-04-16T22:12:39.823Z,102356.97
2023-04-16T22:15:09.160Z,102361.41
2023-04-16T22:17:36.977Z,102370.41
2023-04-16T22:20:08.527Z,102365.31
2023-04-16T22:22:37.639Z,102362.91
2023-04-16T22:25:05.966Z,102356.78
2023-04-16T22:27:33.960Z,102355.09
2023-04-16T22:30:01.950Z,102357.63
2023-04-16T22:32:30.937Z,102355.94
2023-04-16T22:34:58.718Z,102362.91
2023-04-16T22:37:26.575Z,102365.66
2023-04-16T22:39:55.780Z,102360.38
2023-04-16T22:42:24.201Z,102361.16
2023-04-16T22:44:51.983Z,102356.78
2023-04-16T22:47:19.747Z,102357.63
2023-04-16T22:49:47.687Z,102356.78
2023-04-16T22:52:15.419Z,102357.81
2023-04-16T22:54:43.048Z,102344.00
2023-04-16T22:57:12.107Z,102357.31
2023-04-16T22:59:39.808Z,102341.88
2023-04-16T23:02:07.539Z,102358.94
2023-04-16T23:04:35.397Z,102355.34
2023-04-16T23:07:03.222Z,102356.03
2023-04-16T23:09:30.996Z,102356.13
2023-04-16T23:11:58.743Z,102358.06
2023-04-16T23:14:27.862Z,102349.28
2023-04-16T23:16:55.576Z,102345.97
2023-04-16T23:19:23.319Z,102357.47
2023-04-16T23:21:51.011Z,102353.91
2023-04-16T23:24:18.712Z,102353.19
2023-04-16T23:26:46.447Z,102349.56
2023-04-16T23:29:14.173Z,102353.91
2023-04-16T23:31:43.242Z,102347.75
2023-04-16T23:34:11.348Z,102354.06
2023-04-16T23:36:39.248Z,102357.47
2023-04-16T23:39:06.923Z,102351.34
2023-04-16T23:41:34.615Z,102362.84
2023-04-16T23:44:02.397Z,102357.63
2023-04-16T23:46:30.131Z,102361.06
2023-04-16T23:48:59.302Z,102366.34
2023-04-16T23:51:27.009Z,102366.34
2023-04-16T23:53:54.662Z,102357.63
2023-04-16T23:56:22.380Z,102361.22
2023-04-16T23:58:50.066Z,102357.91
